Time;durP1;ratioP1;P1;durP2;ratioP2;P2;SDS_P1;SDS_P2;PMS_P1;PMS_P2;Temp;Humidity;BMP_temperature;BMP_pressure;BME280_temperature;BME280_humidity;BME280_pressure;Samples;Min_cycle;Max_cycle;Signal;HPM_P1;HPM_P2
2022/02/14 00:00:58;;;;;;;16.83;7.88;;;8.90;99.90;;;;;;5089934;28;20028;-54
2022/02/14 00:03:23;;;;;;;18.55;8.15;;;9.00;99.90;;;;;;5089729;28;20038;-53
2022/02/14 00:05:49;;;;;;;16.42;7.53;;;9.00;99.90;;;;;;5089575;28;20036;-56
2022/02/14 00:08:15;;;;;;;20.02;8.70;;;9.00;99.90;;;;;;5089615;28;20032;-56
2022/02/14 00:10:40;;;;;;;17.38;7.75;;;9.10;99.90;;;;;;5078764;28;20024;-53
2022/02/14 00:13:06;;;;;;;16.92;8.18;;;9.00;99.90;;;;;;5077258;28;20036;-53
2022/02/14 00:15:32;;;;;;;17.02;8.20;;;9.10;99.90;;;;;;5079590;28;20016;-53
2022/02/14 00:17:58;;;;;;;15.75;7.50;;;9.10;99.90;;;;;;5077967;28;20443;-55
2022/02/14 00:20:23;;;;;;;19.75;7.70;;;9.10;99.90;;;;;;5078474;28;20419;-53
2022/02/14 00:22:50;;;;;;;16.45;7.85;;;9.10;99.90;;;;;;5079808;28;20040;-57
2022/02/14 00:25:19;;;;;;;15.55;8.07;;;9.10;99.90;;;;;;5077844;28;20028;-51
2022/02/14 00:27:47;;;;;;;19.17;7.80;;;9.30;99.90;;;;;;5078165;28;20028;-54
2022/02/14 00:30:13;;;;;;;17.08;7.72;;;9.30;99.90;;;;;;5079861;28;20384;-54
2022/02/14 00:32:39;;;;;;;17.65;7.75;;;9.30;99.90;;;;;;5076755;28;20094;-50
2022/02/14 00:35:05;;;;;;;17.20;7.70;;;9.40;99.90;;;;;;5078582;28;20055;-52
2022/02/14 00:37:31;;;;;;;21.15;7.88;;;9.40;99.90;;;;;;5077381;28;20016;-53
2022/02/14 00:39:57;;;;;;;18.17;8.38;;;9.50;99.90;;;;;;5079338;28;20442;-54
2022/02/14 00:42:23;;;;;;;14.77;7.90;;;9.40;99.90;;;;;;5078560;28;20107;-55
2022/02/14 00:44:49;;;;;;;18.75;8.23;;;9.40;99.90;;;;;;5077477;28;20032;-55
2022/02/14 00:47:15;;;;;;;16.40;7.57;;;9.40;99.90;;;;;;5077332;28;20206;-53
2022/02/14 00:49:41;;;;;;;17.15;7.63;;;9.50;99.90;;;;;;5060420;28;20547;-53
2022/02/14 00:52:06;;;;;;;15.20;7.70;;;9.50;99.90;;;;;;5078803;28;20024;-53
2022/02/14 00:54:32;;;;;;;18.08;8.52;;;9.50;99.90;;;;;;5077226;28;20020;-55
2022/02/14 00:56:58;;;;;;;17.17;7.47;;;9.50;99.90;;;;;;5079111;28;20016;-58
2022/02/14 00:59:24;;;;;;;16.83;7.35;;;9.40;99.90;;;;;;5060330;28;20024;-53
2022/02/14 01:01:50;;;;;;;14.90;7.60;;;9.50;99.90;;;;;;5077237;28;20764;-51
2022/02/14 01:04:15;;;;;;;18.08;7.40;;;9.50;99.90;;;;;;5070905;28;20036;-54
2022/02/14 01:06:42;;;;;;;14.07;6.97;;;9.50;99.90;;;;;;5068948;28;20028;-56
2022/02/14 01:09:08;;;;;;;18.35;8.18;;;9.60;99.90;;;;;;5088961;23;20040;-66
2022/02/14 01:11:35;;;;;;;16.58;7.18;;;9.50;99.90;;;;;;5069866;28;20021;-66
2022/02/14 01:14:00;;;;;;;17.33;8.90;;;9.40;99.90;;;;;;5070584;28;20029;-67
2022/02/14 01:16:26;;;;;;;17.42;7.50;;;9.50;99.90;;;;;;5070716;28;20035;-67
2022/02/14 01:18:51;;;;;;;18.05;7.60;;;9.50;99.90;;;;;;5069224;28;20123;-67
2022/02/14 01:21:17;;;;;;;16.02;7.47;;;9.50;99.90;;;;;;5069353;28;20017;-67
2022/02/14 01:23:43;;;;;;;17.10;7.50;;;9.50;99.90;;;;;;5070554;28;20036;-66
2022/02/14 01:26:08;;;;;;;16.25;7.43;;;9.50;99.90;;;;;;5070371;28;20469;-67
2022/02/14 01:28:34;;;;;;;16.98;7.65;;;9.40;99.90;;;;;;5073265;28;20036;-67
2022/02/14 01:30:59;;;;;;;18.88;7.70;;;9.30;99.90;;;;;;5074457;28;20099;-66
2022/02/14 01:33:25;;;;;;;15.70;7.15;;;9.40;99.90;;;;;;5074482;28;20021;-67
2022/02/14 01:35:51;;;;;;;15.65;7.25;;;9.30;99.90;;;;;;5072979;28;20078;-66
2022/02/14 01:38:17;;;;;;;15.95;7.70;;;9.20;99.90;;;;;;5074349;28;20028;-67
2022/02/14 01:40:43;;;;;;;15.50;7.00;;;9.30;99.90;;;;;;5074170;28;20025;-67
2022/02/14 01:43:09;;;;;;;18.13;8.38;;;9.30;99.90;;;;;;5072967;28;20024;-66
2022/02/14 01:45:34;;;;;;;17.92;7.63;;;9.20;99.90;;;;;;5073968;28;20032;-66
2022/02/14 01:48:00;;;;;;;17.15;7.68;;;9.30;99.90;;;;;;5073116;28;20020;-66
2022/02/14 01:50:26;;;;;;;18.15;7.88;;;9.20;99.90;;;;;;5072897;28;20021;-65
2022/02/14 01:52:54;;;;;;;20.63;8.23;;;9.20;99.90;;;;;;5073996;28;20104;-66
2022/02/14 01:55:20;;;;;;;16.95;8.50;;;9.10;99.90;;;;;;5072477;28;20028;-67
2022/02/14 01:57:46;;;;;;;16.98;7.65;;;9.10;99.90;;;;;;5074243;28;20393;-65
2022/02/14 02:00:16;;;;;;;16.55;7.38;;;9.00;99.90;;;;;;5074228;28;20032;-65
2022/02/14 02:02:42;;;;;;;15.50;7.75;;;9.00;99.90;;;;;;5074729;28;20059;-65
2022/02/14 02:05:09;;;;;;;16.10;7.38;;;8.90;99.90;;;;;;5076375;28;20114;-65
2022/02/14 02:07:35;;;;;;;19.40;8.73;;;9.00;99.90;;;;;;5083513;28;20561;-66
2022/02/14 02:10:01;;;;;;;17.40;7.15;;;8.90;99.90;;;;;;5077884;28;20029;-66
2022/02/14 02:12:26;;;;;;;17.65;7.28;;;8.90;99.90;;;;;;5073310;28;20017;-65
2022/02/14 02:14:53;;;;;;;15.73;7.00;;;8.80;99.90;;;;;;5074344;28;20388;-63
2022/02/14 02:17:19;;;;;;;18.50;7.65;;;8.80;99.90;;;;;;5074424;28;20550;-65
2022/02/14 02:19:45;;;;;;;16.92;7.47;;;8.80;99.90;;;;;;5075080;28;20032;-66
2022/02/14 02:22:11;;;;;;;17.63;6.93;;;8.70;99.90;;;;;;5075496;28;20416;-65
2022/02/14 02:24:54;;;;;;;15.75;6.78;;;8.80;99.90;;;;;;5075077;28;20036;-66
2022/02/14 02:27:25;;;;;;;15.20;6.53;;;8.90;99.90;;;;;;5075570;28;20025;-66
2022/02/14 02:29:55;;;;;;;17.13;7.30;;;8.90;99.90;;;;;;5072475;28;20078;-65
2022/02/14 02:32:21;;;;;;;19.08;8.05;;;8.90;99.90;;;;;;5072130;28;20028;-66
2022/02/14 02:34:47;;;;;;;15.32;7.53;;;8.90;99.90;;;;;;5071618;28;20028;-66
2022/02/14 02:37:15;;;;;;;16.35;6.65;;;8.90;99.90;;;;;;5073176;28;20021;-66
2022/02/14 02:39:41;;;;;;;14.10;6.93;;;9.00;99.90;;;;;;5071268;28;20438;-68
2022/02/14 02:42:08;;;;;;;16.77;7.03;;;9.00;99.90;;;;;;5071969;28;20147;-66
2022/02/14 02:44:36;;;;;;;15.15;7.03;;;9.00;99.90;;;;;;5072990;28;20025;-65
2022/02/14 02:47:04;;;;;;;16.50;7.15;;;9.20;99.90;;;;;;5073075;28;20044;-66
2022/02/14 02:49:30;;;;;;;18.52;8.48;;;9.20;99.90;;;;;;5071652;28;20504;-66
2022/02/14 02:51:55;;;;;;;18.70;7.10;;;9.10;99.90;;;;;;5073004;28;20032;-66
2022/02/14 02:54:23;;;;;;;15.82;7.07;;;9.00;99.90;;;;;;5071531;28;20028;-66
2022/02/14 02:56:51;;;;;;;15.13;7.25;;;8.90;99.90;;;;;;5071507;28;20062;-65
2022/02/14 02:59:16;;;;;;;15.83;7.10;;;8.90;99.90;;;;;;5071572;28;20025;-66
2022/02/14 03:01:43;;;;;;;16.60;6.53;;;8.90;99.90;;;;;;5072921;28;20754;-66
2022/02/14 03:04:11;;;;;;;20.55;8.80;;;8.80;99.90;;;;;;5072548;28;20031;-66
2022/02/14 03:06:38;;;;;;;19.73;7.10;;;8.80;99.90;;;;;;5073034;28;20112;-66
2022/02/14 03:09:05;;;;;;;18.48;8.55;;;8.70;99.90;;;;;;5071474;28;20467;-65
2022/02/14 03:11:31;;;;;;;17.65;7.03;;;8.80;99.90;;;;;;5072703;28;20423;-66
2022/02/14 03:13:57;;;;;;;15.43;6.90;;;8.80;99.90;;;;;;5071238;28;20052;-67
2022/02/14 03:16:23;;;;;;;18.35;7.45;;;8.70;99.90;;;;;;5072440;28;20476;-67
2022/02/14 03:18:49;;;;;;;16.85;7.18;;;8.70;99.90;;;;;;5071221;28;20059;-67
2022/02/14 03:21:15;;;;;;;19.55;7.00;;;8.70;99.90;;;;;;5072605;28;20056;-67
2022/02/14 03:23:41;;;;;;;17.33;7.45;;;8.80;99.90;;;;;;5072352;28;20029;-67
2022/02/14 03:26:07;;;;;;;17.02;8.70;;;8.70;99.90;;;;;;5070886;28;20076;-67
2022/02/14 03:28:33;;;;;;;15.57;7.10;;;8.80;99.90;;;;;;5070795;28;20028;-67
2022/02/14 03:31:00;;;;;;;16.50;7.53;;;8.70;99.90;;;;;;5070745;28;20020;-67
2022/02/14 03:33:26;;;;;;;16.73;7.30;;;8.80;99.90;;;;;;5072011;28;20020;-66
2022/02/14 03:35:53;;;;;;;15.77;7.50;;;8.70;99.90;;;;;;5071853;28;20491;-67
2022/02/14 03:38:18;;;;;;;18.10;7.63;;;8.80;99.90;;;;;;5071956;28;20028;-66
2022/02/14 03:40:45;;;;;;;18.05;7.55;;;8.80;99.90;;;;;;5072079;28;20036;-66
2022/02/14 03:43:11;;;;;;;15.32;7.15;;;8.80;99.90;;;;;;5071817;28;20517;-67
2022/02/14 03:45:40;;;;;;;17.48;7.93;;;8.90;99.90;;;;;;5071531;28;20439;-67
2022/02/14 03:48:07;;;;;;;17.95;6.93;;;8.80;99.90;;;;;;5071902;28;20128;-67
2022/02/14 03:50:33;;;;;;;14.75;7.25;;;8.70;99.90;;;;;;5071449;28;20119;-67
2022/02/14 03:52:58;;;;;;;14.98;7.00;;;8.70;99.90;;;;;;5071504;28;20021;-66
2022/02/14 03:55:24;;;;;;;16.40;7.32;;;8.80;99.90;;;;;;5070324;28;20120;-67
2022/02/14 03:57:50;;;;;;;14.52;7.05;;;8.80;99.90;;;;;;5070379;28;20153;-66
2022/02/14 04:00:21;;;;;;;16.23;7.30;;;8.80;99.90;;;;;;5071627;28;20025;-67
2022/02/14 04:02:48;;;;;;;16.45;7.30;;;8.90;99.90;;;;;;5070364;28;20420;-66
2022/02/14 04:05:15;;;;;;;16.38;7.63;;;8.90;99.90;;;;;;5071340;28;20443;-67
2022/02/14 04:07:41;;;;;;;17.73;8.70;;;8.80;99.90;;;;;;5071229;28;20510;-66
2022/02/14 04:10:09;;;;;;;17.75;7.70;;;8.80;99.90;;;;;;5070344;28;20438;-66
2022/02/14 04:12:35;;;;;;;16.08;7.68;;;8.80;99.90;;;;;;5071549;28;20388;-66
2022/02/14 04:15:02;;;;;;;15.93;7.38;;;8.80;99.90;;;;;;5071258;28;20422;-66
2022/02/14 04:17:28;;;;;;;14.55;7.03;;;8.70;99.90;;;;;;5071439;28;20020;-66
2022/02/14 04:19:53;;;;;;;15.50;7.53;;;8.70;99.90;;;;;;5070477;28;20511;-66
2022/02/14 04:22:20;;;;;;;16.65;7.18;;;8.50;99.90;;;;;;5071751;28;20128;-66
2022/02/14 04:24:46;;;;;;;16.42;7.50;;;8.50;99.90;;;;;;5071331;28;20103;-66
2022/02/14 04:27:12;;;;;;;15.45;7.60;;;8.50;99.90;;;;;;5071415;28;20032;-65
2022/02/14 04:29:37;;;;;;;19.75;8.63;;;8.50;99.90;;;;;;5071419;28;20028;-66
2022/02/14 04:32:03;;;;;;;29.45;15.32;;;8.60;99.90;;;;;;5069895;28;20024;-66
2022/02/14 04:34:29;;;;;;;15.88;7.15;;;8.50;99.90;;;;;;5071374;28;20012;-66
2022/02/14 04:36:55;;;;;;;15.52;7.25;;;8.50;99.90;;;;;;5069787;28;20032;-66
2022/02/14 04:39:20;;;;;;;18.55;8.30;;;8.50;99.90;;;;;;5071139;28;20677;-67
2022/02/14 04:41:46;;;;;;;18.48;9.15;;;8.50;99.90;;;;;;5069860;28;20087;-67
2022/02/14 04:44:13;;;;;;;18.05;7.50;;;8.50;99.90;;;;;;5069292;28;20101;-67
2022/02/14 04:46:38;;;;;;;16.48;8.23;;;8.50;99.90;;;;;;5071153;28;20032;-67
2022/02/14 04:49:05;;;;;;;17.65;7.45;;;8.60;99.90;;;;;;5069642;28;20032;-67
2022/02/14 04:51:31;;;;;;;17.25;7.18;;;8.50;99.90;;;;;;5070868;28;20158;-67
2022/02/14 04:53:57;;;;;;;15.30;7.18;;;8.50;99.90;;;;;;5070993;28;20070;-67
2022/02/14 04:56:23;;;;;;;15.10;7.30;;;8.40;99.90;;;;;;5070936;28;20043;-66
2022/02/14 04:58:48;;;;;;;15.40;7.30;;;8.50;99.90;;;;;;5070820;28;20082;-66
2022/02/14 05:01:15;;;;;;;18.13;7.68;;;8.60;99.90;;;;;;5069836;28;20029;-65
2022/02/14 05:03:41;;;;;;;15.10;7.80;;;8.60;99.90;;;;;;5076348;28;20020;-66
2022/02/14 05:06:07;;;;;;;15.55;8.30;;;8.50;99.90;;;;;;5077152;28;20036;-65
2022/02/14 05:08:32;;;;;;;15.48;7.75;;;8.60;99.90;;;;;;5077395;28;20123;-66
2022/02/14 05:10:58;;;;;;;17.13;8.25;;;8.60;99.90;;;;;;5076018;28;20039;-66
2022/02/14 05:13:24;;;;;;;15.27;7.80;;;8.60;99.90;;;;;;5077516;28;20097;-67
2022/02/14 05:15:50;;;;;;;16.50;8.95;;;8.50;99.90;;;;;;5077214;28;20027;-67
2022/02/14 05:18:16;;;;;;;15.85;7.40;;;8.60;99.90;;;;;;5077450;28;20135;-67
2022/02/14 05:20:42;;;;;;;16.25;7.75;;;8.70;99.90;;;;;;5077456;28;20569;-67
2022/02/14 05:23:07;;;;;;;16.85;9.02;;;8.80;99.90;;;;;;5076261;28;20392;-67
2022/02/14 05:25:33;;;;;;;15.25;7.90;;;8.70;99.90;;;;;;5076950;28;20076;-66
2022/02/14 05:27:58;;;;;;;15.90;7.88;;;8.80;99.90;;;;;;5077006;28;20033;-67
2022/02/14 05:30:25;;;;;;;15.27;7.53;;;8.70;99.90;;;;;;5077426;28;20412;-66
2022/02/14 05:32:51;;;;;;;15.88;7.57;;;8.70;99.90;;;;;;5077328;28;20020;-66
2022/02/14 05:35:17;;;;;;;14.80;7.47;;;8.70;99.90;;;;;;5077091;28;20029;-66
2022/02/14 05:37:43;;;;;;;17.50;8.98;;;8.90;99.90;;;;;;5075734;28;20020;-66
2022/02/14 05:40:09;;;;;;;16.52;8.00;;;8.90;99.90;;;;;;5077092;28;20036;-67
2022/02/14 05:42:34;;;;;;;14.93;7.65;;;9.00;99.90;;;;;;5077053;28;20044;-68
2022/02/14 05:45:00;;;;;;;16.55;8.55;;;9.00;99.90;;;;;;5076963;28;20035;-67
2022/02/14 05:47:25;;;;;;;15.02;7.88;;;9.10;99.90;;;;;;5076680;28;20563;-66
2022/02/14 05:49:51;;;;;;;14.77;7.75;;;9.10;99.90;;;;;;5076925;28;20031;-67
2022/02/14 05:52:17;;;;;;;16.90;9.05;;;9.10;99.90;;;;;;5077009;28;20024;-67
2022/02/14 05:54:43;;;;;;;14.70;7.97;;;9.20;99.90;;;;;;5075048;28;20383;-67
2022/02/14 05:57:10;;;;;;;15.73;8.05;;;9.10;99.90;;;;;;5075145;28;20078;-67
2022/02/14 05:59:36;;;;;;;16.30;7.53;;;9.10;99.90;;;;;;5075571;28;20488;-66
2022/02/14 06:02:02;;;;;;;15.98;8.07;;;9.10;99.90;;;;;;5075338;28;20081;-66
2022/02/14 06:04:29;;;;;;;16.33;8.30;;;9.00;99.90;;;;;;5076546;28;20067;-66
2022/02/14 06:06:54;;;;;;;16.23;8.52;;;8.90;99.90;;;;;;5075337;28;20028;-64
2022/02/14 06:09:21;;;;;;;15.52;7.50;;;9.00;99.90;;;;;;5076427;28;20169;-64
2022/02/14 06:11:47;;;;;;;15.82;7.70;;;9.00;99.90;;;;;;5077137;28;20059;-67
2022/02/14 06:14:13;;;;;;;16.77;7.65;;;9.00;99.90;;;;;;5074254;28;20024;-66
2022/02/14 06:16:38;;;;;;;14.52;7.93;;;9.10;99.90;;;;;;5073848;28;20024;-67
2022/02/14 06:19:04;;;;;;;15.75;7.88;;;9.10;99.90;;;;;;5073183;28;20088;-67
2022/02/14 06:21:30;;;;;;;15.70;7.90;;;9.10;99.90;;;;;;5072034;28;20048;-67
2022/02/14 06:23:56;;;;;;;16.08;7.65;;;9.10;99.90;;;;;;5071765;28;20048;-66
2022/02/14 06:26:21;;;;;;;16.35;8.27;;;9.10;99.90;;;;;;5073492;28;20453;-64
2022/02/14 06:28:47;;;;;;;15.07;7.95;;;9.20;99.90;;;;;;5073442;28;20087;-65
2022/02/14 06:31:13;;;;;;;14.85;7.32;;;9.20;99.90;;;;;;5073618;28;20067;-66
2022/02/14 06:33:38;;;;;;;15.23;7.53;;;9.20;99.90;;;;;;5073139;28;20025;-66
2022/02/14 06:36:05;;;;;;;18.60;7.90;;;9.20;99.90;;;;;;5073166;28;20024;-66
2022/02/14 06:38:32;;;;;;;16.70;7.90;;;9.20;99.90;;;;;;5073017;28;20031;-66
2022/02/14 06:40:58;;;;;;;16.42;7.80;;;9.20;99.90;;;;;;5073965;28;20074;-66
2022/02/14 06:43:23;;;;;;;16.65;7.65;;;9.10;99.90;;;;;;5072220;28;20024;-67
2022/02/14 06:45:49;;;;;;;15.80;7.60;;;9.10;99.90;;;;;;5072936;28;20024;-67
2022/02/14 06:48:15;;;;;;;18.52;8.20;;;9.10;99.90;;;;;;5071879;28;20025;-67
2022/02/14 06:50:41;;;;;;;15.43;7.85;;;9.10;99.90;;;;;;5072835;28;20081;-66
2022/02/14 06:53:06;;;;;;;15.63;8.10;;;9.10;99.90;;;;;;5073848;28;20028;-68
2022/02/14 06:55:32;;;;;;;16.27;7.60;;;9.10;99.90;;;;;;5073415;28;20099;-67
2022/02/14 06:57:58;;;;;;;15.30;7.85;;;9.10;99.90;;;;;;5073167;28;20021;-65
2022/02/14 07:00:26;;;;;;;18.90;8.02;;;9.00;99.90;;;;;;5071107;28;20111;-65
2022/02/14 07:02:52;;;;;;;14.73;7.43;;;9.00;99.90;;;;;;5072531;28;20465;-67
2022/02/14 07:05:21;;;;;;;17.45;7.45;;;9.00;99.90;;;;;;5070825;28;20123;-67
2022/02/14 07:07:48;;;;;;;14.55;7.50;;;9.00;99.90;;;;;;5093906;23;20112;-56
2022/02/14 07:10:14;;;;;;;14.50;7.38;;;9.00;99.90;;;;;;5093465;28;20500;-52
2022/02/14 07:12:40;;;;;;;14.55;7.25;;;9.00;99.90;;;;;;5093902;28;20036;-55
2022/02/14 07:15:06;;;;;;;19.00;6.93;;;9.00;99.90;;;;;;5093645;28;20024;-52
2022/02/14 07:17:32;;;;;;;14.70;7.05;;;9.00;99.90;;;;;;5075709;28;20016;-56
2022/02/14 07:19:58;;;;;;;14.60;7.28;;;9.00;99.90;;;;;;5093731;28;20476;-58
2022/02/14 07:22:24;;;;;;;14.05;7.07;;;9.10;99.90;;;;;;5093405;28;20387;-56
2022/02/14 07:24:50;;;;;;;14.20;6.93;;;9.30;99.90;;;;;;5075040;28;20020;-56
2022/02/14 07:27:16;;;;;;;14.88;6.95;;;9.40;99.90;;;;;;5093413;28;20502;-58
2022/02/14 07:29:41;;;;;;;14.23;7.22;;;9.40;99.90;;;;;;5093538;28;20039;-57
2022/02/14 07:32:07;;;;;;;15.25;7.13;;;9.50;99.90;;;;;;5093559;28;20020;-60
2022/02/14 07:34:33;;;;;;;18.63;7.40;;;9.60;99.90;;;;;;5074679;28;20441;-56
2022/02/14 07:37:02;;;;;;;16.40;7.72;;;9.70;99.90;;;;;;5075207;28;20294;-56
2022/02/14 07:39:34;;;;;;;15.07;7.40;;;9.70;99.90;;;;;;5075066;28;20093;-55
2022/02/14 07:42:01;;;;;;;14.05;7.18;;;9.60;99.90;;;;;;5093361;28;20487;-56
2022/02/14 07:44:27;;;;;;;14.88;7.38;;;9.60;99.90;;;;;;5093130;28;20035;-57
2022/02/14 07:46:53;;;;;;;14.48;7.15;;;9.60;99.90;;;;;;5075499;28;20096;-55
2022/02/14 07:49:20;;;;;;;14.93;7.30;;;9.60;99.90;;;;;;5092994;28;20020;-58
2022/02/14 07:51:46;;;;;;;14.32;6.88;;;9.70;99.90;;;;;;5093100;28;20035;-54
2022/02/14 07:54:12;;;;;;;14.45;6.88;;;9.80;99.90;;;;;;5092832;28;20391;-57
2022/02/14 07:56:38;;;;;;;14.40;7.28;;;9.90;99.90;;;;;;5093350;28;20475;-59
2022/02/14 07:59:04;;;;;;;15.02;7.22;;;9.90;99.90;;;;;;5093267;28;20365;-58
2022/02/14 08:01:30;;;;;;;15.00;7.03;;;9.90;99.90;;;;;;5092712;28;20051;-57
2022/02/14 08:03:56;;;;;;;15.60;7.25;;;9.90;99.90;;;;;;5090294;28;20027;-55
2022/02/14 08:06:22;;;;;;;14.57;7.40;;;10.00;99.90;;;;;;5055258;28;20113;-60
2022/02/14 08:08:48;;;;;;;14.93;7.53;;;10.20;99.90;;;;;;5072272;28;20123;-56
2022/02/14 08:11:14;;;;;;;14.90;7.30;;;10.30;99.90;;;;;;5076193;28;20035;-57
2022/02/14 08:13:39;;;;;;;16.13;7.50;;;10.40;99.90;;;;;;5091469;28;20141;-56
2022/02/14 08:16:05;;;;;;;14.07;7.35;;;10.50;99.90;;;;;;5092624;28;20020;-57
2022/02/14 08:18:31;;;;;;;16.65;7.13;;;10.40;99.90;;;;;;5092555;28;20396;-59
2022/02/14 08:20:57;;;;;;;16.15;7.68;;;10.40;99.90;;;;;;5092265;28;20038;-55
2022/02/14 08:23:22;;;;;;;14.73;7.53;;;10.50;99.90;;;;;;5089442;28;20028;-61
2022/02/14 08:25:48;;;;;;;14.57;7.38;;;10.50;99.90;;;;;;5075060;28;20028;-61
2022/02/14 08:28:16;;;;;;;13.90;7.35;;;10.50;99.90;;;;;;5076753;28;20032;-61
2022/02/14 08:30:42;;;;;;;14.82;7.90;;;10.60;99.90;;;;;;5092135;28;20110;-59
2022/02/14 08:33:10;;;;;;;17.15;7.68;;;10.60;99.90;;;;;;5074547;28;20027;-60
2022/02/14 08:35:37;;;;;;;15.55;7.60;;;10.60;99.90;;;;;;5073634;28;20016;-58
2022/02/14 08:38:03;;;;;;;14.23;7.40;;;10.60;99.90;;;;;;5091673;28;20028;-60
2022/02/14 08:40:29;;;;;;;14.80;7.43;;;10.60;99.90;;;;;;5064711;28;20028;-63
2022/02/14 08:42:56;;;;;;;14.68;7.47;;;10.60;99.90;;;;;;5086367;28;20046;-55
2022/02/14 08:45:22;;;;;;;15.18;8.10;;;10.60;99.90;;;;;;5091536;28;20023;-59
2022/02/14 08:47:49;;;;;;;14.57;7.28;;;10.60;99.90;;;;;;5089770;28;20035;-63
2022/02/14 08:50:15;;;;;;;14.80;7.50;;;10.70;99.90;;;;;;5065170;28;20119;-60
2022/02/14 08:52:41;;;;;;;15.93;7.68;;;10.70;99.90;;;;;;5092329;28;20079;-60
2022/02/14 08:55:08;;;;;;;14.68;7.55;;;10.70;99.90;;;;;;5084841;28;20027;-63
2022/02/14 08:57:35;;;;;;;14.18;7.05;;;10.70;99.90;;;;;;5089119;28;20179;-61
2022/02/14 09:00:01;;;;;;;15.85;7.05;;;10.80;99.90;;;;;;5073706;28;20372;-59
2022/02/14 09:02:27;;;;;;;14.60;7.40;;;10.90;99.90;;;;;;5074223;28;20491;-63
2022/02/14 09:04:52;;;;;;;13.00;6.88;;;10.90;99.90;;;;;;5091780;28;20062;-61
2022/02/14 09:07:18;;;;;;;14.55;7.15;;;11.00;99.90;;;;;;5073964;28;20115;-61
2022/02/14 09:09:43;;;;;;;14.40;7.70;;;11.00;99.90;;;;;;5091884;28;20103;-58
2022/02/14 09:12:09;;;;;;;19.05;8.18;;;11.10;99.90;;;;;;5092017;28;20040;-60
2022/02/14 09:14:35;;;;;;;13.93;7.07;;;11.20;99.90;;;;;;5091569;28;20024;-56
2022/02/14 09:17:00;;;;;;;15.30;7.40;;;11.20;99.90;;;;;;5091468;28;20435;-58
2022/02/14 09:19:26;;;;;;;14.02;7.10;;;11.20;99.90;;;;;;5091688;28;20028;-54
2022/02/14 09:21:52;;;;;;;14.15;6.93;;;11.20;99.90;;;;;;5073466;28;20024;-60
2022/02/14 09:24:17;;;;;;;15.73;7.28;;;11.10;99.90;;;;;;5091488;28;20060;-59
2022/02/14 09:26:45;;;;;;;15.38;7.45;;;11.10;99.90;;;;;;5088370;28;20029;-57
2022/02/14 09:29:13;;;;;;;14.40;6.90;;;11.10;99.90;;;;;;5079709;28;20103;-59
2022/02/14 09:31:38;;;;;;;13.32;6.70;;;11.00;99.90;;;;;;5080888;28;20095;-58
2022/02/14 09:34:05;;;;;;;13.65;6.55;;;11.00;99.90;;;;;;5061065;28;20059;-62
2022/02/14 09:36:31;;;;;;;13.55;6.90;;;11.00;99.90;;;;;;5071781;28;20021;-63
2022/02/14 09:38:57;;;;;;;14.13;7.22;;;11.10;99.90;;;;;;5071475;28;20361;-62
2022/02/14 09:41:25;;;;;;;16.52;7.35;;;11.20;99.90;;;;;;5058215;28;20024;-60
2022/02/14 09:43:51;;;;;;;14.23;7.13;;;11.20;99.90;;;;;;5061656;28;20099;-63
2022/02/14 09:46:17;;;;;;;14.60;7.32;;;11.20;99.90;;;;;;5061233;28;20048;-64
2022/02/14 09:48:43;;;;;;;17.90;7.75;;;11.20;99.90;;;;;;5072542;28;20521;-62
2022/02/14 09:51:11;;;;;;;15.98;7.20;;;11.30;99.90;;;;;;5075972;28;20028;-59
2022/02/14 09:53:36;;;;;;;13.85;7.00;;;11.30;99.90;;;;;;5085311;28;20023;-64
2022/02/14 09:56:02;;;;;;;15.10;6.85;;;11.30;99.90;;;;;;5065177;28;20012;-63
2022/02/14 09:58:28;;;;;;;14.45;6.97;;;11.30;99.90;;;;;;5084300;28;20502;-64
2022/02/14 10:00:55;;;;;;;14.32;7.10;;;11.30;99.90;;;;;;5085547;28;21599;-61
2022/02/14 10:03:24;;;;;;;14.75;7.03;;;11.20;99.90;;;;;;5086356;28;20085;-63
2022/02/14 10:05:54;;;;;;;14.90;7.10;;;11.20;99.90;;;;;;5076639;28;20379;-63
2022/02/14 10:08:24;;;;;;;15.35;7.90;;;11.20;99.90;;;;;;5076055;28;20083;-64
2022/02/14 10:10:52;;;;;;;17.10;7.22;;;11.20;99.90;;;;;;5083540;28;20020;-64
2022/02/14 10:13:51;;;;;;;13.90;6.90;;;11.20;99.90;;;;;;5065767;28;20024;-62
2022/02/14 10:16:18;;;;;;;12.75;6.85;;;11.30;99.90;;;;;;5065234;28;20036;-62
2022/02/14 10:18:44;;;;;;;17.52;7.35;;;11.20;99.90;;;;;;5093533;28;20115;-59
2022/02/14 10:21:14;;;;;;;13.40;6.90;;;11.20;99.90;;;;;;5076344;28;20051;-62
2022/02/14 10:23:59;;;;;;;14.07;8.10;;;11.20;99.90;;;;;;5093782;28;20032;-65
2022/02/14 10:26:36;;;;;;;14.57;7.28;;;11.30;99.90;;;;;;5094687;28;20047;-60
2022/02/14 10:29:10;;;;;;;15.90;6.78;;;11.40;99.90;;;;;;5094372;28;20089;-64
2022/02/14 10:31:40;;;;;;;14.32;7.03;;;11.50;99.90;;;;;;5094779;28;20103;-60
2022/02/14 10:34:06;;;;;;;16.38;7.75;;;11.60;99.90;;;;;;5075577;28;20440;-57
2022/02/14 10:36:36;;;;;;;15.65;7.20;;;11.50;99.90;;;;;;5093215;28;20024;-64
2022/02/14 10:39:20;;;;;;;15.52;7.32;;;11.60;99.90;;;;;;5075721;28;20028;-60
2022/02/14 10:41:49;;;;;;;14.95;7.63;;;11.50;99.90;;;;;;5094641;28;20036;-61
2022/02/14 10:45:07;;;;;;;15.93;7.28;;;11.50;99.90;;;;;;5094200;28;20024;-63
2022/02/14 10:47:15;;;;;;;14.20;7.35;;;11.50;99.90;;;;;;5094258;28;20097;-63
2022/02/14 10:49:41;;;;;;;15.90;7.70;;;11.50;99.90;;;;;;5094178;28;20028;-63
2022/02/14 10:52:09;;;;;;;14.77;7.00;;;11.60;99.90;;;;;;5076989;28;20110;-62
2022/02/14 10:54:42;;;;;;;14.77;6.55;;;11.50;99.90;;;;;;5075553;28;20484;-60
2022/02/14 10:57:25;;;;;;;15.88;7.18;;;11.40;99.90;;;;;;5081599;28;20508;-62
2022/02/14 11:00:05;;;;;;;15.77;7.47;;;11.50;99.90;;;;;;5055877;28;20480;-57
2022/02/14 11:02:31;;;;;;;14.35;6.90;;;11.40;99.90;;;;;;5073964;28;20028;-59
2022/02/14 11:04:57;;;;;;;16.92;7.32;;;11.50;99.90;;;;;;5056140;28;20055;-60
2022/02/14 11:07:25;;;;;;;13.80;7.63;;;11.50;99.90;;;;;;5055760;28;20059;-53
2022/02/14 11:09:53;;;;;;;14.98;6.80;;;11.50;99.90;;;;;;5073791;28;20091;-57
2022/02/14 11:12:20;;;;;;;13.65;6.60;;;11.50;99.90;;;;;;5059151;28;20032;-60
2022/02/14 11:14:56;;;;;;;14.30;6.60;;;11.50;99.90;;;;;;5075731;28;20027;-52
2022/02/14 11:17:24;;;;;;;15.70;7.05;;;11.60;99.90;;;;;;5082490;28;20028;-55
2022/02/14 11:19:56;;;;;;;13.07;6.97;;;11.60;99.90;;;;;;5085613;28;20033;-59
2022/02/14 11:22:24;;;;;;;14.35;7.13;;;11.80;99.90;;;;;;5072216;28;20157;-60
2022/02/14 11:24:57;;;;;;;14.77;6.90;;;11.90;99.90;;;;;;5091253;28;20028;-55
2022/02/14 11:27:27;;;;;;;15.75;7.10;;;12.10;99.90;;;;;;5092527;28;20028;-58
2022/02/14 11:29:55;;;;;;;14.82;7.40;;;12.20;99.90;;;;;;5093850;28;20035;-62
2022/02/14 11:32:28;;;;;;;16.20;7.43;;;12.20;99.90;;;;;;5067720;28;20032;-58
2022/02/14 11:35:17;;;;;;;14.50;7.72;;;12.40;99.90;;;;;;5076357;28;20021;-60
2022/02/14 11:37:56;;;;;;;15.43;7.95;;;12.70;99.90;;;;;;5055399;28;20020;-62
2022/02/14 11:40:30;;;;;;;14.63;7.82;;;13.20;99.90;;;;;;5054934;28;20087;-63
2022/02/14 11:43:07;;;;;;;15.18;7.40;;;13.00;99.90;;;;;;5074311;28;20103;-60
2022/02/14 11:45:34;;;;;;;13.98;7.63;;;12.90;99.90;;;;;;5074984;28;20048;-59
2022/02/14 11:48:23;;;;;;;14.93;8.02;;;12.70;99.90;;;;;;5075136;28;20047;-70
2022/02/14 11:50:49;;;;;;;14.68;8.00;;;12.50;99.90;;;;;;5074985;28;20430;-63
2022/02/14 11:53:33;;;;;;;14.40;8.07;;;12.40;99.90;;;;;;5093022;28;20082;-60
2022/02/14 11:56:18;;;;;;;15.25;7.43;;;12.20;99.90;;;;;;5074736;28;20026;-62
2022/02/14 11:59:05;;;;;;;15.73;7.78;;;12.00;99.90;;;;;;5093155;28;20098;-62
2022/02/14 12:01:35;;;;;;;14.43;7.45;;;11.90;99.90;;;;;;5093229;28;20077;-60
2022/02/14 12:04:32;;;;;;;13.98;7.22;;;11.90;99.90;;;;;;5075160;28;20054;-59
2022/02/14 12:07:22;;;;;;;14.85;7.60;;;11.90;99.90;;;;;;5093450;28;20118;-62
2022/02/14 12:09:57;;;;;;;14.65;7.38;;;11.90;99.90;;;;;;5092739;28;20058;-60
2022/02/14 12:12:45;;;;;;;13.65;7.60;;;11.80;99.90;;;;;;5074185;28;20020;-61
2022/02/14 12:20:50;;;;;;;15.02;7.65;;;11.80;99.90;;;;;;5093180;28;20154;-63
2022/02/14 12:23:32;;;;;;;12.93;6.93;;;11.80;99.90;;;;;;5093409;28;20024;-54
2022/02/14 12:25:59;;;;;;;12.32;6.43;;;11.80;99.90;;;;;;5074274;28;20119;-63
2022/02/14 12:28:26;;;;;;;12.85;6.65;;;11.80;99.90;;;;;;5074597;28;20115;-61
2022/02/14 12:30:54;;;;;;;12.23;6.53;;;11.80;99.90;;;;;;5092369;28;20020;-62
2022/02/14 12:33:19;;;;;;;13.93;6.85;;;12.30;99.90;;;;;;5092942;28;20439;-55
2022/02/14 12:35:47;;;;;;;12.02;6.68;;;12.40;99.90;;;;;;5074884;28;20047;-64
2022/02/14 12:38:13;;;;;;;13.00;6.97;;;12.20;99.90;;;;;;5074517;28;20107;-61
2022/02/14 12:41:09;;;;;;;13.35;6.90;;;12.10;99.90;;;;;;5092439;28;20028;-61
2022/02/14 12:43:39;;;;;;;12.45;6.80;;;12.40;99.90;;;;;;5092926;28;20438;-63
2022/02/14 12:46:09;;;;;;;15.27;6.68;;;12.10;99.90;;;;;;5067672;28;20017;-59
2022/02/14 12:48:40;;;;;;;12.98;6.72;;;12.00;99.90;;;;;;5081269;28;20027;-63
2022/02/14 12:51:07;;;;;;;12.10;6.38;;;12.10;99.90;;;;;;5080835;28;20095;-59